sensor_id;sensor_type;location;lat;lon;timestamp;pressure;altitude;pressure_sealevel;temperature;humidity
11345;BME280;5727;42.600;23.028;2023-05-28T00:00:02;93563.91;;;15.78;100.00
11345;BME280;5727;42.600;23.028;2023-05-28T00:02:29;93567.00;;;15.87;100.00
11345;BME280;5727;42.600;23.028;2023-05-28T00:04:57;93570.06;;;15.89;100.00
11345;BME280;5727;42.600;23.028;2023-05-28T00:07:24;93564.47;;;15.94;100.00
11345;BME280;5727;42.600;23.028;2023-05-28T00:09:53;93561.50;;;15.99;100.00
11345;BME280;5727;42.600;23.028;2023-05-28T00:12:20;93567.03;;;15.91;100.00
11345;BME280;5727;42.600;23.028;2023-05-28T00:14:47;93561.72;;;15.87;100.00
11345;BME280;5727;42.600;23.028;2023-05-28T00:17:14;93571.00;;;15.71;100.00
11345;BME280;5727;42.600;23.028;2023-05-28T00:19:42;93564.63;;;15.75;100.00
11345;BME280;5727;42.600;23.028;2023-05-28T00:22:10;93565.25;;;15.65;100.00
11345;BME280;5727;42.600;23.028;2023-05-28T00:24:37;93563.66;;;15.57;100.00
11345;BME280;5727;42.600;23.028;2023-05-28T00:27:04;93568.72;;;15.69;100.00
11345;BME280;5727;42.600;23.028;2023-05-28T00:29:31;93569.81;;;15.68;100.00
11345;BME280;5727;42.600;23.028;2023-05-28T00:31:58;93569.50;;;15.73;100.00
11345;BME280;5727;42.600;23.028;2023-05-28T00:34:25;93569.19;;;15.78;100.00
11345;BME280;5727;42.600;23.028;2023-05-28T00:36:53;93558.66;;;15.82;100.00
11345;BME280;5727;42.600;23.028;2023-05-28T00:39:21;93553.09;;;15.90;100.00
11345;BME280;5727;42.600;23.028;2023-05-28T00:41:48;93548.59;;;15.94;100.00
11345;BME280;5727;42.600;23.028;2023-05-28T00:44:14;93553.50;;;15.92;100.00
11345;BME280;5727;42.600;23.028;2023-05-28T00:46:43;93551.84;;;15.81;100.00
11345;BME280;5727;42.600;23.028;2023-05-28T00:49:12;93550.31;;;15.80;100.00
11345;BME280;5727;42.600;23.028;2023-05-28T00:51:39;93552.50;;;15.71;100.00
11345;BME280;5727;42.600;23.028;2023-05-28T00:54:06;93558.16;;;15.69;100.00
11345;BME280;5727;42.600;23.028;2023-05-28T00:56:34;93555.72;;;15.57;100.00
11345;BME280;5727;42.600;23.028;2023-05-28T00:59:01;93551.53;;;15.52;100.00
11345;BME280;5727;42.600;23.028;2023-05-28T01:01:29;93550.09;;;15.58;100.00
11345;BME280;5727;42.600;23.028;2023-05-28T01:03:56;93547.63;;;15.73;100.00
11345;BME280;5727;42.600;23.028;2023-05-28T01:06:24;93548.84;;;15.82;100.00
11345;BME280;5727;42.600;23.028;2023-05-28T01:08:54;93539.47;;;15.85;100.00
11345;BME280;5727;42.600;23.028;2023-05-28T01:11:23;93535.75;;;15.93;100.00
11345;BME280;5727;42.600;23.028;2023-05-28T01:13:51;93533.88;;;15.93;100.00
11345;BME280;5727;42.600;23.028;2023-05-28T01:16:19;93528.22;;;15.95;100.00
11345;BME280;5727;42.600;23.028;2023-05-28T01:18:46;93527.91;;;16.00;100.00
11345;BME280;5727;42.600;23.028;2023-05-28T01:21:14;93525.69;;;16.05;100.00
11345;BME280;5727;42.600;23.028;2023-05-28T01:23:43;93530.94;;;16.02;100.00
11345;BME280;5727;42.600;23.028;2023-05-28T01:26:11;93534.00;;;16.04;100.00
11345;BME280;5727;42.600;23.028;2023-05-28T01:28:38;93528.72;;;16.07;100.00
11345;BME280;5727;42.600;23.028;2023-05-28T01:31:09;93536.25;;;16.05;100.00
11345;BME280;5727;42.600;23.028;2023-05-28T01:33:37;93523.81;;;16.06;100.00
11345;BME280;5727;42.600;23.028;2023-05-28T01:36:05;93525.31;;;16.07;100.00
11345;BME280;5727;42.600;23.028;2023-05-28T01:38:35;93526.41;;;16.02;100.00
11345;BME280;5727;42.600;23.028;2023-05-28T01:41:05;93527.19;;;16.06;100.00
11345;BME280;5727;42.600;23.028;2023-05-28T01:43:33;93524.84;;;15.94;100.00
11345;BME280;5727;42.600;23.028;2023-05-28T01:46:00;93527.09;;;15.96;100.00
11345;BME280;5727;42.600;23.028;2023-05-28T01:48:28;93523.28;;;15.90;100.00
11345;BME280;5727;42.600;23.028;2023-05-28T01:50:55;93514.78;;;15.74;100.00
11345;BME280;5727;42.600;23.028;2023-05-28T01:53:22;93517.22;;;15.56;100.00
11345;BME280;5727;42.600;23.028;2023-05-28T01:55:49;93514.22;;;15.54;100.00
11345;BME280;5727;42.600;23.028;2023-05-28T01:58:18;93511.47;;;15.47;100.00
11345;BME280;5727;42.600;23.028;2023-05-28T02:00:54;93520.94;;;15.48;100.00
11345;BME280;5727;42.600;23.028;2023-05-28T02:03:23;93524.63;;;15.43;100.00
11345;BME280;5727;42.600;23.028;2023-05-28T02:05:49;93522.88;;;15.54;100.00
11345;BME280;5727;42.600;23.028;2023-05-28T02:08:16;93525.25;;;15.63;100.00
11345;BME280;5727;42.600;23.028;2023-05-28T02:10:43;93526.34;;;15.62;100.00
11345;BME280;5727;42.600;23.028;2023-05-28T02:13:09;93524.91;;;15.68;100.00
11345;BME280;5727;42.600;23.028;2023-05-28T02:15:37;93528.38;;;15.76;100.00
11345;BME280;5727;42.600;23.028;2023-05-28T02:18:04;93517.88;;;15.79;100.00
11345;BME280;5727;42.600;23.028;2023-05-28T02:20:31;93517.81;;;15.76;100.00
11345;BME280;5727;42.600;23.028;2023-05-28T02:22:58;93514.72;;;15.67;100.00
11345;BME280;5727;42.600;23.028;2023-05-28T02:25:24;93521.34;;;15.50;100.00
11345;BME280;5727;42.600;23.028;2023-05-28T02:27:51;93526.66;;;15.27;100.00
11345;BME280;5727;42.600;23.028;2023-05-28T02:30:18;93525.97;;;15.30;100.00
11345;BME280;5727;42.600;23.028;2023-05-28T02:32:46;93534.28;;;15.32;100.00
11345;BME280;5727;42.600;23.028;2023-05-28T02:35:13;93527.44;;;15.28;100.00
11345;BME280;5727;42.600;23.028;2023-05-28T02:37:39;93529.09;;;15.10;100.00
11345;BME280;5727;42.600;23.028;2023-05-28T02:40:07;93527.06;;;15.00;100.00
11345;BME280;5727;42.600;23.028;2023-05-28T02:42:35;93524.47;;;15.03;100.00
11345;BME280;5727;42.600;23.028;2023-05-28T02:45:01;93523.72;;;15.03;100.00
11345;BME280;5727;42.600;23.028;2023-05-28T02:47:29;93528.22;;;15.02;100.00
11345;BME280;5727;42.600;23.028;2023-05-28T02:49:57;93535.28;;;14.95;100.00
11345;BME280;5727;42.600;23.028;2023-05-28T02:52:24;93532.44;;;15.07;100.00
11345;BME280;5727;42.600;23.028;2023-05-28T02:54:50;93525.97;;;15.04;100.00
11345;BME280;5727;42.600;23.028;2023-05-28T02:57:17;93531.84;;;14.91;100.00
11345;BME280;5727;42.600;23.028;2023-05-28T02:59:44;93530.69;;;14.88;100.00
11345;BME280;5727;42.600;23.028;2023-05-28T03:02:11;93530.38;;;14.93;100.00
11345;BME280;5727;42.600;23.028;2023-05-28T03:04:37;93531.22;;;15.01;100.00
11345;BME280;5727;42.600;23.028;2023-05-28T03:07:05;93533.69;;;15.16;100.00
11345;BME280;5727;42.600;23.028;2023-05-28T03:09:32;93525.53;;;15.25;100.00
11345;BME280;5727;42.600;23.028;2023-05-28T03:11:59;93526.13;;;15.15;100.00
11345;BME280;5727;42.600;23.028;2023-05-28T03:14:25;93527.66;;;15.16;100.00
11345;BME280;5727;42.600;23.028;2023-05-28T03:16:52;93527.94;;;15.07;100.00
11345;BME280;5727;42.600;23.028;2023-05-28T03:19:19;93534.66;;;15.05;100.00
11345;BME280;5727;42.600;23.028;2023-05-28T03:21:45;93530.72;;;14.92;100.00
11345;BME280;5727;42.600;23.028;2023-05-28T03:24:14;93532.31;;;14.96;100.00
11345;BME280;5727;42.600;23.028;2023-05-28T03:26:40;93535.91;;;14.85;100.00
11345;BME280;5727;42.600;23.028;2023-05-28T03:29:07;93531.22;;;15.01;100.00
11345;BME280;5727;42.600;23.028;2023-05-28T03:31:43;93523.34;;;15.04;100.00
11345;BME280;5727;42.600;23.028;2023-05-28T03:34:10;93530.59;;;15.11;100.00
11345;BME280;5727;42.600;23.028;2023-05-28T03:36:37;93522.84;;;15.21;100.00
11345;BME280;5727;42.600;23.028;2023-05-28T03:39:05;93520.69;;;15.30;100.00
11345;BME280;5727;42.600;23.028;2023-05-28T03:41:34;93521.44;;;15.31;100.00
11345;BME280;5727;42.600;23.028;2023-05-28T03:44:00;93523.41;;;15.37;100.00
11345;BME280;5727;42.600;23.028;2023-05-28T03:46:27;93520.81;;;15.41;100.00
11345;BME280;5727;42.600;23.028;2023-05-28T03:48:54;93518.28;;;15.48;100.00
11345;BME280;5727;42.600;23.028;2023-05-28T03:51:21;93522.13;;;15.54;100.00
11345;BME280;5727;42.600;23.028;2023-05-28T03:53:48;93524.88;;;15.65;100.00
11345;BME280;5727;42.600;23.028;2023-05-28T03:56:15;93518.63;;;15.80;100.00
11345;BME280;5727;42.600;23.028;2023-05-28T03:58:45;93519.06;;;15.85;100.00
11345;BME280;5727;42.600;23.028;2023-05-28T04:01:12;93516.13;;;15.94;100.00
11345;BME280;5727;42.600;23.028;2023-05-28T04:03:38;93520.38;;;16.02;100.00
11345;BME280;5727;42.600;23.028;2023-05-28T04:06:05;93533.69;;;16.12;100.00
11345;BME280;5727;42.600;23.028;2023-05-28T04:08:32;93523.47;;;16.11;100.00
11345;BME280;5727;42.600;23.028;2023-05-28T04:10:59;93522.66;;;16.03;100.00
11345;BME280;5727;42.600;23.028;2023-05-28T04:13:25;93525.56;;;15.95;100.00
11345;BME280;5727;42.600;23.028;2023-05-28T04:15:53;93527.91;;;16.00;100.00
11345;BME280;5727;42.600;23.028;2023-05-28T04:18:21;93530.53;;;16.00;100.00
11345;BME280;5727;42.600;23.028;2023-05-28T04:20:47;93536.72;;;16.14;100.00
11345;BME280;5727;42.600;23.028;2023-05-28T04:23:14;93533.66;;;16.09;100.00
11345;BME280;5727;42.600;23.028;2023-05-28T04:25:41;93535.66;;;16.22;100.00
11345;BME280;5727;42.600;23.028;2023-05-28T04:28:08;93532.59;;;16.17;100.00
11345;BME280;5727;42.600;23.028;2023-05-28T04:30:36;93540.94;;;16.22;100.00
11345;BME280;5727;42.600;23.028;2023-05-28T04:33:04;93525.34;;;16.10;100.00
11345;BME280;5727;42.600;23.028;2023-05-28T04:35:32;93528.94;;;16.28;100.00
11345;BME280;5727;42.600;23.028;2023-05-28T04:37:59;93529.63;;;16.25;100.00
11345;BME280;5727;42.600;23.028;2023-05-28T04:40:26;93538.94;;;16.09;100.00
11345;BME280;5727;42.600;23.028;2023-05-28T04:42:53;93532.03;;;15.97;100.00
11345;BME280;5727;42.600;23.028;2023-05-28T04:45:20;93530.16;;;15.98;100.00
11345;BME280;5727;42.600;23.028;2023-05-28T04:47:48;93534.41;;;16.09;100.00
11345;BME280;5727;42.600;23.028;2023-05-28T04:50:17;93539.81;;;16.23;100.00
11345;BME280;5727;42.600;23.028;2023-05-28T04:52:43;93536.06;;;16.24;100.00
11345;BME280;5727;42.600;23.028;2023-05-28T04:55:10;93539.19;;;16.37;100.00
11345;BME280;5727;42.600;23.028;2023-05-28T04:57:38;93549.56;;;16.56;100.00
11345;BME280;5727;42.600;23.028;2023-05-28T05:00:06;93545.09;;;16.64;100.00
11345;BME280;5727;42.600;23.028;2023-05-28T05:02:37;93544.25;;;16.53;100.00
11345;BME280;5727;42.600;23.028;2023-05-28T05:05:05;93550.00;;;16.62;100.00
11345;BME280;5727;42.600;23.028;2023-05-28T05:07:34;93550.72;;;16.59;100.00
11345;BME280;5727;42.600;23.028;2023-05-28T05:10:01;93550.72;;;16.59;100.00
11345;BME280;5727;42.600;23.028;2023-05-28T05:12:28;93542.06;;;16.62;100.00
11345;BME280;5727;42.600;23.028;2023-05-28T05:14:54;93542.84;;;16.66;100.00
11345;BME280;5727;42.600;23.028;2023-05-28T05:17:21;93552.34;;;16.74;100.00
11345;BME280;5727;42.600;23.028;2023-05-28T05:19:48;93539.94;;;16.85;100.00
11345;BME280;5727;42.600;23.028;2023-05-28T05:22:14;93546.81;;;16.93;100.00
11345;BME280;5727;42.600;23.028;2023-05-28T05:24:42;93547.28;;;17.02;100.00
11345;BME280;5727;42.600;23.028;2023-05-28T05:27:09;93540.34;;;16.87;100.00
11345;BME280;5727;42.600;23.028;2023-05-28T05:29:36;93538.56;;;16.98;100.00
11345;BME280;5727;42.600;23.028;2023-05-28T05:32:03;93538.22;;;17.10;100.00
11345;BME280;5727;42.600;23.028;2023-05-28T05:34:29;93546.22;;;17.17;100.00
11345;BME280;5727;42.600;23.028;2023-05-28T05:36:56;93547.34;;;17.19;100.00
11345;BME280;5727;42.600;23.028;2023-05-28T05:39:24;93542.91;;;17.30;100.00
11345;BME280;5727;42.600;23.028;2023-05-28T05:41:52;93540.59;;;17.29;100.00
11345;BME280;5727;42.600;23.028;2023-05-28T05:44:19;93541.75;;;17.28;100.00
11345;BME280;5727;42.600;23.028;2023-05-28T05:46:45;93545.06;;;17.14;100.00
11345;BME280;5727;42.600;23.028;2023-05-28T05:49:13;93540.09;;;17.06;100.00
11345;BME280;5727;42.600;23.028;2023-05-28T05:51:40;93541.72;;;17.21;100.00
11345;BME280;5727;42.600;23.028;2023-05-28T05:54:07;93540.66;;;17.36;100.00
11345;BME280;5727;42.600;23.028;2023-05-28T05:56:33;93541.00;;;17.31;100.00
11345;BME280;5727;42.600;23.028;2023-05-28T05:59:02;93548.59;;;17.32;100.00
11345;BME280;5727;42.600;23.028;2023-05-28T06:01:28;93542.53;;;17.39;100.00
11345;BME280;5727;42.600;23.028;2023-05-28T06:03:56;93545.56;;;17.34;100.00
11345;BME280;5727;42.600;23.028;2023-05-28T06:06:23;93546.94;;;17.14;100.00
11345;BME280;5727;42.600;23.028;2023-05-28T06:08:49;93544.31;;;17.14;100.00
11345;BME280;5727;42.600;23.028;2023-05-28T06:11:16;93540.88;;;17.10;100.00
11345;BME280;5727;42.600;23.028;2023-05-28T06:13:43;93552.72;;;17.26;100.00
11345;BME280;5727;42.600;23.028;2023-05-28T06:16:11;93553.13;;;17.35;100.00
11345;BME280;5727;42.600;23.028;2023-05-28T06:18:37;93536.53;;;17.42;100.00
11345;BME280;5727;42.600;23.028;2023-05-28T06:21:05;93545.28;;;17.53;100.00
11345;BME280;5727;42.600;23.028;2023-05-28T06:23:33;93545.00;;;17.69;100.00
11345;BME280;5727;42.600;23.028;2023-05-28T06:25:59;93544.28;;;17.79;100.00
11345;BME280;5727;42.600;23.028;2023-05-28T06:28:26;93541.25;;;17.80;100.00
11345;BME280;5727;42.600;23.028;2023-05-28T06:30:53;93540.47;;;17.76;100.00
11345;BME280;5727;42.600;23.028;2023-05-28T06:33:21;93551.91;;;18.08;100.00
11345;BME280;5727;42.600;23.028;2023-05-28T06:35:47;93544.38;;;18.21;100.00
11345;BME280;5727;42.600;23.028;2023-05-28T06:38:14;93551.16;;;18.04;100.00
11345;BME280;5727;42.600;23.028;2023-05-28T06:40:41;93554.13;;;17.85;100.00
11345;BME280;5727;42.600;23.028;2023-05-28T06:43:07;93554.00;;;17.54;100.00
11345;BME280;5727;42.600;23.028;2023-05-28T06:45:34;93555.06;;;17.42;100.00
11345;BME280;5727;42.600;23.028;2023-05-28T06:48:01;93558.41;;;17.32;100.00
11345;BME280;5727;42.600;23.028;2023-05-28T06:50:29;93551.66;;;17.45;100.00
11345;BME280;5727;42.600;23.028;2023-05-28T06:52:56;93549.50;;;17.58;100.00
11345;BME280;5727;42.600;23.028;2023-05-28T06:55:23;93550.91;;;17.45;100.00
11345;BME280;5727;42.600;23.028;2023-05-28T06:57:50;93549.41;;;17.47;100.00
11345;BME280;5727;42.600;23.028;2023-05-28T07:00:17;93556.91;;;17.34;100.00
11345;BME280;5727;42.600;23.028;2023-05-28T07:02:44;93557.59;;;17.21;100.00
11345;BME280;5727;42.600;23.028;2023-05-28T07:05:11;93551.47;;;17.10;100.00
11345;BME280;5727;42.600;23.028;2023-05-28T07:07:39;93557.53;;;17.14;100.00
11345;BME280;5727;42.600;23.028;2023-05-28T07:10:07;93555.34;;;17.26;100.00
11345;BME280;5727;42.600;23.028;2023-05-28T07:12:34;93562.91;;;17.28;100.00
11345;BME280;5727;42.600;23.028;2023-05-28T07:15:00;93553.50;;;17.34;100.00
11345;BME280;5727;42.600;23.028;2023-05-28T07:17:27;93552.81;;;17.44;100.00
11345;BME280;5727;42.600;23.028;2023-05-28T07:19:54;93554.03;;;17.61;100.00
11345;BME280;5727;42.600;23.028;2023-05-28T07:22:20;93546.84;;;17.65;100.00
11345;BME280;5727;42.600;23.028;2023-05-28T07:24:50;93549.56;;;17.82;100.00
11345;BME280;5727;42.600;23.028;2023-05-28T07:27:17;93547.25;;;17.70;100.00
11345;BME280;5727;42.600;23.028;2023-05-28T07:29:43;93540.44;;;17.69;100.00
11345;BME280;5727;42.600;23.028;2023-05-28T07:32:10;93547.97;;;17.60;100.00
11345;BME280;5727;42.600;23.028;2023-05-28T07:34:37;93545.59;;;17.45;100.00
11345;BME280;5727;42.600;23.028;2023-05-28T07:37:06;93543.22;;;17.25;100.00
11345;BME280;5727;42.600;23.028;2023-05-28T07:39:32;93536.56;;;16.84;100.00
11345;BME280;5727;42.600;23.028;2023-05-28T07:42:00;93539.47;;;16.69;100.00
11345;BME280;5727;42.600;23.028;2023-05-28T07:44:27;93545.63;;;16.87;100.00
11345;BME280;5727;42.600;23.028;2023-05-28T07:46:54;93542.53;;;17.32;100.00
11345;BME280;5727;42.600;23.028;2023-05-28T07:49:20;93538.94;;;17.75;100.00
11345;BME280;5727;42.600;23.028;2023-05-28T07:51:49;93536.75;;;18.05;100.00
11345;BME280;5727;42.600;23.028;2023-05-28T07:54:15;93540.59;;;18.36;100.00
11345;BME280;5727;42.600;23.028;2023-05-28T07:56:42;93545.19;;;18.78;100.00
11345;BME280;5727;42.600;23.028;2023-05-28T07:59:10;93549.72;;;18.74;100.00
11345;BME280;5727;42.600;23.028;2023-05-28T08:01:37;93533.03;;;18.87;100.00
11345;BME280;5727;42.600;23.028;2023-05-28T08:04:04;93543.28;;;18.64;100.00
11345;BME280;5727;42.600;23.028;2023-05-28T08:06:31;93542.16;;;18.76;100.00
11345;BME280;5727;42.600;23.028;2023-05-28T08:08:58;93543.66;;;18.56;100.00
11345;BME280;5727;42.600;23.028;2023-05-28T08:11:25;93544.81;;;18.55;100.00
11345;BME280;5727;42.600;23.028;2023-05-28T08:13:52;93539.06;;;18.35;100.00
11345;BME280;5727;42.600;23.028;2023-05-28T08:16:20;93536.81;;;18.30;100.00
11345;BME280;5727;42.600;23.028;2023-05-28T08:18:46;93539.88;;;18.60;100.00
11345;BME280;5727;42.600;23.028;2023-05-28T08:21:13;93543.69;;;18.63;100.00
11345;BME280;5727;42.600;23.028;2023-05-28T08:23:40;93536.47;;;18.60;100.00
11345;BME280;5727;42.600;23.028;2023-05-28T08:26:07;93536.84;;;18.83;100.00
11345;BME280;5727;42.600;23.028;2023-05-28T08:28:34;93538.34;;;18.87;100.00
11345;BME280;5727;42.600;23.028;2023-05-28T08:31:00;93542.91;;;18.66;100.00
11345;BME280;5727;42.600;23.028;2023-05-28T08:33:28;93545.19;;;18.85;100.00
11345;BME280;5727;42.600;23.028;2023-05-28T08:35:55;93548.59;;;18.64;100.00
11345;BME280;5727;42.600;23.028;2023-05-28T08:38:22;93544.41;;;18.56;100.00
11345;BME280;5727;42.600;23.028;2023-05-28T08:40:50;93554.66;;;18.51;100.00
11345;BME280;5727;42.600;23.028;2023-05-28T08:43:18;93550.84;;;18.34;100.00
11345;BME280;5727;42.600;23.028;2023-05-28T08:45:45;93549.31;;;18.37;100.00
11345;BME280;5727;42.600;23.028;2023-05-28T08:48:14;93559.56;;;18.56;100.00
11345;BME280;5727;42.600;23.028;2023-05-28T08:50:48;93551.22;;;18.36;100.00
11345;BME280;5727;42.600;23.028;2023-05-28T08:53:20;93559.16;;;18.40;100.00
11345;BME280;5727;42.600;23.028;2023-05-28T08:55:47;93553.53;;;18.52;100.00
11345;BME280;5727;42.600;23.028;2023-05-28T08:58:14;93560.34;;;18.74;100.00
11345;BME280;5727;42.600;23.028;2023-05-28T09:00:42;93555.44;;;18.76;100.00
11345;BME280;5727;42.600;23.028;2023-05-28T09:03:09;93547.44;;;19.14;100.00
11345;BME280;5727;42.600;23.028;2023-05-28T09:05:36;93543.97;;;19.32;100.00
11345;BME280;5727;42.600;23.028;2023-05-28T09:08:07;93545.91;;;19.10;100.00
11345;BME280;5727;42.600;23.028;2023-05-28T09:10:34;93550.47;;;18.99;100.00
11345;BME280;5727;42.600;23.028;2023-05-28T09:13:00;93545.50;;;19.43;100.00
11345;BME280;5727;42.600;23.028;2023-05-28T09:15:28;93538.22;;;19.65;100.00
11345;BME280;5727;42.600;23.028;2023-05-28T09:17:55;93551.00;;;19.91;100.00
11345;BME280;5727;42.600;23.028;2023-05-28T09:20:23;93547.50;;;20.04;100.00
11345;BME280;5727;42.600;23.028;2023-05-28T09:22:57;93553.91;;;20.21;100.00
11345;BME280;5727;42.600;23.028;2023-05-28T09:25:26;93553.25;;;19.99;100.00
11345;BME280;5727;42.600;23.028;2023-05-28T09:27:54;93548.75;;;19.86;100.00
11345;BME280;5727;42.600;23.028;2023-05-28T09:30:21;93547.47;;;20.15;100.00
11345;BME280;5727;42.600;23.028;2023-05-28T09:32:55;93552.22;;;20.48;100.00
11345;BME280;5727;42.600;23.028;2023-05-28T09:35:24;93541.13;;;19.91;100.00
11345;BME280;5727;42.600;23.028;2023-05-28T09:37:59;93542.06;;;19.46;100.00
11345;BME280;5727;42.600;23.028;2023-05-28T09:40:27;93542.72;;;19.78;100.00
11345;BME280;5727;42.600;23.028;2023-05-28T09:42:54;93542.72;;;19.78;100.00
11345;BME280;5727;42.600;23.028;2023-05-28T09:45:23;93541.13;;;19.91;100.00
11345;BME280;5727;42.600;23.028;2023-05-28T09:47:50;93540.34;;;19.94;100.00
11345;BME280;5727;42.600;23.028;2023-05-28T09:50:17;93532.84;;;19.75;100.00
11345;BME280;5727;42.600;23.028;2023-05-28T09:52:44;93533.53;;;19.86;100.00
11345;BME280;5727;42.600;23.028;2023-05-28T09:55:13;93536.91;;;19.97;100.00
11345;BME280;5727;42.600;23.028;2023-05-28T09:57:45;93534.19;;;20.19;100.00
11345;BME280;5727;42.600;23.028;2023-05-28T10:00:15;93532.38;;;19.91;100.00
11345;BME280;5727;42.600;23.028;2023-05-28T10:02:55;93539.50;;;20.19;100.00
11345;BME280;5727;42.600;23.028;2023-05-28T10:05:28;93533.34;;;20.29;100.00
11345;BME280;5727;42.600;23.028;2023-05-28T10:07:56;93535.28;;;20.18;100.00
11345;BME280;5727;42.600;23.028;2023-05-28T10:10:25;93530.66;;;20.29;100.00
11345;BME280;5727;42.600;23.028;2023-05-28T10:12:55;93533.44;;;20.11;100.00
11345;BME280;5727;42.600;23.028;2023-05-28T10:15:23;93534.22;;;20.04;100.00
11345;BME280;5727;42.600;23.028;2023-05-28T10:17:50;93531.19;;;20.02;100.00
11345;BME280;5727;42.600;23.028;2023-05-28T10:20:18;93522.44;;;20.05;100.00
11345;BME280;5727;42.600;23.028;2023-05-28T10:22:45;93524.91;;;20.41;100.00
11345;BME280;5727;42.600;23.028;2023-05-28T10:25:12;93527.53;;;20.48;100.00
11345;BME280;5727;42.600;23.028;2023-05-28T10:27:43;93505.91;;;20.39;100.00
11345;BME280;5727;42.600;23.028;2023-05-28T10:30:14;93527.63;;;20.34;100.00
11345;BME280;5727;42.600;23.028;2023-05-28T10:32:56;93526.47;;;20.31;100.00
11345;BME280;5727;42.600;23.028;2023-05-28T10:35:23;93538.44;;;19.95;100.00
11345;BME280;5727;42.600;23.028;2023-05-28T10:37:50;93531.63;;;19.90;100.00
11345;BME280;5727;42.600;23.028;2023-05-28T10:40:22;93534.16;;;20.22;100.00
11345;BME280;5727;42.600;23.028;2023-05-28T10:42:49;93529.47;;;20.44;100.00
11345;BME280;5727;42.600;23.028;2023-05-28T10:45:17;93518.25;;;20.66;100.00
11345;BME280;5727;42.600;23.028;2023-05-28T10:47:51;93509.75;;;21.26;97.96
11345;BME280;5727;42.600;23.028;2023-05-28T10:50:18;93518.59;;;20.72;97.45
11345;BME280;5727;42.600;23.028;2023-05-28T10:53:05;93516.22;;;20.81;98.00
11345;BME280;5727;42.600;23.028;2023-05-28T10:55:49;93501.41;;;20.80;95.66
11345;BME280;5727;42.600;23.028;2023-05-28T10:58:24;93507.75;;;20.93;94.04
11345;BME280;5727;42.600;23.028;2023-05-28T11:00:53;93512.66;;;20.94;93.13
11345;BME280;5727;42.600;23.028;2023-05-28T11:03:40;93516.09;;;20.95;93.41
11345;BME280;5727;42.600;23.028;2023-05-28T11:06:07;93507.53;;;21.18;93.65
11345;BME280;5727;42.600;23.028;2023-05-28T11:08:38;93512.81;;;21.21;92.17
11345;BME280;5727;42.600;23.028;2023-05-28T11:11:05;93500.06;;;21.02;91.71
11345;BME280;5727;42.600;23.028;2023-05-28T11:13:32;93515.47;;;20.80;93.38
11345;BME280;5727;42.600;23.028;2023-05-28T11:16:07;93523.94;;;20.68;93.64
11345;BME280;5727;42.600;23.028;2023-05-28T11:18:34;93513.19;;;20.79;93.28
11345;BME280;5727;42.600;23.028;2023-05-28T11:21:05;93510.97;;;21.18;91.97
11345;BME280;5727;42.600;23.028;2023-05-28T11:23:33;93508.53;;;21.31;90.63
11345;BME280;5727;42.600;23.028;2023-05-28T11:26:01;93508.66;;;21.20;87.50
11345;BME280;5727;42.600;23.028;2023-05-28T11:28:28;93496.41;;;21.26;88.19
11345;BME280;5727;42.600;23.028;2023-05-28T11:30:56;93505.69;;;21.48;86.10
11345;BME280;5727;42.600;23.028;2023-05-28T11:33:28;93499.03;;;22.73;81.60
11345;BME280;5727;42.600;23.028;2023-05-28T11:35:57;93481.91;;;22.94;78.50
11345;BME280;5727;42.600;23.028;2023-05-28T11:38:24;93481.50;;;23.38;78.16
11345;BME280;5727;42.600;23.028;2023-05-28T11:40:58;93476.28;;;24.90;67.28
11345;BME280;5727;42.600;23.028;2023-05-28T11:43:24;93464.34;;;25.52;63.76
11345;BME280;5727;42.600;23.028;2023-05-28T11:45:56;93471.50;;;24.17;72.43
11345;BME280;5727;42.600;23.028;2023-05-28T11:48:24;93470.13;;;23.54;76.49
11345;BME280;5727;42.600;23.028;2023-05-28T11:50:58;93469.66;;;22.73;80.22
11345;BME280;5727;42.600;23.028;2023-05-28T11:53:37;93472.25;;;21.74;87.45
11345;BME280;5727;42.600;23.028;2023-05-28T11:56:04;93475.94;;;21.50;89.59
11345;BME280;5727;42.600;23.028;2023-05-28T11:58:31;93473.13;;;20.93;92.95
11345;BME280;5727;42.600;23.028;2023-05-28T12:00:58;93471.28;;;21.57;93.45
11345;BME280;5727;42.600;23.028;2023-05-28T12:03:25;93470.34;;;23.43;78.32
11345;BME280;5727;42.600;23.028;2023-05-28T12:05:52;93455.53;;;24.46;72.28
11345;BME280;5727;42.600;23.028;2023-05-28T12:08:20;93453.28;;;25.21;66.11
11345;BME280;5727;42.600;23.028;2023-05-28T12:10:47;93464.50;;;26.99;59.89
11345;BME280;5727;42.600;23.028;2023-05-28T12:13:14;93455.53;;;25.93;61.56
11345;BME280;5727;42.600;23.028;2023-05-28T12:15:41;93461.44;;;25.18;65.60
11345;BME280;5727;42.600;23.028;2023-05-28T12:18:08;93436.09;;;24.90;65.45
11345;BME280;5727;42.600;23.028;2023-05-28T12:20:37;93452.06;;;23.78;70.50
11345;BME280;5727;42.600;23.028;2023-05-28T12:23:05;93458.63;;;23.37;76.19
11345;BME280;5727;42.600;23.028;2023-05-28T12:25:47;93447.34;;;24.85;65.40
11345;BME280;5727;42.600;23.028;2023-05-28T12:28:15;93446.00;;;25.22;64.12
11345;BME280;5727;42.600;23.028;2023-05-28T12:30:43;93442.72;;;23.86;69.12
11345;BME280;5727;42.600;23.028;2023-05-28T12:33:11;93444.09;;;24.45;67.72
11345;BME280;5727;42.600;23.028;2023-05-28T12:35:38;93436.56;;;26.38;61.17
11345;BME280;5727;42.600;23.028;2023-05-28T12:38:04;93433.59;;;26.82;57.62
11345;BME280;5727;42.600;23.028;2023-05-28T12:40:31;93430.50;;;26.71;57.73
11345;BME280;5727;42.600;23.028;2023-05-28T12:42:59;93431.19;;;27.53;55.40
11345;BME280;5727;42.600;23.028;2023-05-28T12:45:27;93437.63;;;28.47;49.89
11345;BME280;5727;42.600;23.028;2023-05-28T12:47:54;93432.81;;;28.33;49.84
11345;BME280;5727;42.600;23.028;2023-05-28T12:50:20;93428.16;;;28.91;48.88
11345;BME280;5727;42.600;23.028;2023-05-28T12:52:48;93433.00;;;29.24;45.56
11345;BME280;5727;42.600;23.028;2023-05-28T12:55:15;93431.84;;;27.87;49.36